FBD1555 VNLK-VNLK
Flight info
| Callsign | FBD1555 |
|---|---|
| Flight time | 0h 33m |
| Altitude | 12500 |
| Route | TUMLI DCT CHURE |
| Aircraft | DA62/L-SDFGRY/C |
Departure
| Time | 2026-04-09 15:19 |
|---|---|
| Airport | Tenzing-Hillary Airport (VNLK) |
Arrival
| Time | 2026-04-09 15:52 |
|---|---|
| Airport | Tenzing-Hillary Airport (VNLK) |
| Time | Latitude | Longitude | Altitude | Speed | Heading |
|---|---|---|---|---|---|
| 2026-04-09 14:56 | 27.68725 | 86.73159 | 9456 ft | 0 kts | 59° |
| 2026-04-09 15:12 | 27.68728 | 86.73165 | 9455 ft | 2 kts | 52° |
| 2026-04-09 15:12 | 27.68767 | 86.73161 | 9453 ft | 5 kts | 319° |
| 2026-04-09 15:12 | 27.68750 | 86.73099 | 9430 ft | 13 kts | 242° |
| 2026-04-09 15:13 | 27.68696 | 86.72992 | 9377 ft | 14 kts | 240° |
| 2026-04-09 15:13 | 27.68663 | 86.72923 | 9341 ft | 17 kts | 240° |
| 2026-04-09 15:13 | 27.68604 | 86.72800 | 9284 ft | 13 kts | 245° |
| 2026-04-09 15:13 | 27.68572 | 86.72731 | 9250 ft | 2 kts | 231° |
| 2026-04-09 15:14 | 27.68558 | 86.72732 | 9246 ft | 0 kts | 111° |
| 2026-04-09 15:14 | 27.68559 | 86.72739 | 9250 ft | 3 kts | 63° |
| 2026-04-09 15:14 | 27.68568 | 86.72750 | 9256 ft | 3 kts | 57° |
| 2026-04-09 15:14 | 27.68563 | 86.72742 | 9252 ft | 0 kts | 57° |
| 2026-04-09 15:15 | 27.68587 | 86.72784 | 9273 ft | 15 kts | 59° |
| 2026-04-09 15:15 | 27.68669 | 86.72940 | 9337 ft | 31 kts | 60° |
| 2026-04-09 15:15 | 27.68743 | 86.73095 | 9428 ft | 0 kts | 64° |
| 2026-04-09 15:15 | 27.68760 | 86.73134 | 9446 ft | 9 kts | 62° |
| 2026-04-09 15:16 | 27.68777 | 86.73161 | 9456 ft | 5 kts | 55° |
| 2026-04-09 15:16 | 27.68778 | 86.73163 | 9456 ft | 0 kts | 55° |
| 2026-04-09 15:16 | 27.68781 | 86.73169 | 9457 ft | 4 kts | 59° |
| 2026-04-09 15:16 | 27.68798 | 86.73161 | 9454 ft | 0 kts | 270° |
| 2026-04-09 15:17 | 27.68798 | 86.73159 | 9454 ft | 2 kts | 260° |
| 2026-04-09 15:17 | 27.68727 | 86.73058 | 9413 ft | 46 kts | 244° |
| 2026-04-09 15:17 | 27.68432 | 86.72492 | 9147 ft | 116 kts | 237° |
| 2026-04-09 15:17 | 27.67919 | 86.71705 | 9325 ft | 124 kts | 227° |
| 2026-04-09 15:18 | 27.67163 | 86.71215 | 9436 ft | 135 kts | 189° |
| 2026-04-09 15:18 | 27.66214 | 86.71310 | 9587 ft | 140 kts | 162° |
| 2026-04-09 15:18 | 27.65360 | 86.71751 | 9869 ft | 133 kts | 156° |
| 2026-04-09 15:18 | 27.64544 | 86.72548 | 9675 ft | 171 kts | 126° |
| 2026-04-09 15:19 | 27.64100 | 86.73734 | 10261 ft | 137 kts | 101° |
| 2026-04-09 15:19 | 27.63952 | 86.74527 | 11280 ft | 83 kts | 104° |
| 2026-04-09 15:19 | 27.63604 | 86.75415 | 12004 ft | 110 kts | 137° |
| 2026-04-09 15:19 | 27.63299 | 86.75706 | 13127 ft | 150 kts | 265° |
| 2026-04-09 15:20 | 27.62836 | 86.74786 | 13089 ft | 145 kts | 233° |
| 2026-04-09 15:20 | 27.61966 | 86.74454 | 13266 ft | 135 kts | 177° |
| 2026-04-09 15:20 | 27.60972 | 86.74608 | 13207 ft | 146 kts | 171° |
| 2026-04-09 15:20 | 27.60008 | 86.74795 | 13429 ft | 137 kts | 171° |
| 2026-04-09 15:21 | 27.59100 | 86.74973 | 13657 ft | 127 kts | 171° |
| 2026-04-09 15:21 | 27.58260 | 86.75139 | 13871 ft | 119 kts | 171° |
| 2026-04-09 15:21 | 27.57482 | 86.75294 | 14056 ft | 108 kts | 172° |
| 2026-04-09 15:21 | 27.56696 | 86.75455 | 14155 ft | 126 kts | 173° |
| 2026-04-09 15:22 | 27.55766 | 86.75654 | 14231 ft | 146 kts | 163° |
| 2026-04-09 15:22 | 27.54998 | 86.76473 | 14317 ft | 163 kts | 122° |
| 2026-04-09 15:22 | 27.54430 | 86.77625 | 14395 ft | 173 kts | 121° |
| 2026-04-09 15:22 | 27.53810 | 86.78818 | 14476 ft | 179 kts | 122° |
| 2026-04-09 15:23 | 27.53152 | 86.80035 | 14552 ft | 184 kts | 123° |
| 2026-04-09 15:23 | 27.52480 | 86.81274 | 14630 ft | 185 kts | 122° |
| 2026-04-09 15:23 | 27.51802 | 86.82522 | 14701 ft | 187 kts | 123° |
| 2026-04-09 15:23 | 27.51119 | 86.83779 | 14772 ft | 188 kts | 122° |
| 2026-04-09 15:24 | 27.50435 | 86.85041 | 14851 ft | 190 kts | 123° |
| 2026-04-09 15:24 | 27.49731 | 86.86336 | 14694 ft | 202 kts | 122° |
| 2026-04-09 15:24 | 27.48962 | 86.87748 | 14337 ft | 219 kts | 123° |
| 2026-04-09 15:24 | 27.48154 | 86.89234 | 14002 ft | 230 kts | 123° |
| 2026-04-09 15:25 | 27.47296 | 86.90805 | 13702 ft | 236 kts | 123° |
| 2026-04-09 15:25 | 27.46456 | 86.92362 | 13280 ft | 223 kts | 122° |
| 2026-04-09 15:25 | 27.45678 | 86.93799 | 12900 ft | 207 kts | 122° |
| 2026-04-09 15:25 | 27.44948 | 86.95140 | 12569 ft | 196 kts | 125° |
| 2026-04-09 15:26 | 27.44262 | 86.96406 | 12489 ft | 180 kts | 125° |
| 2026-04-09 15:26 | 27.43647 | 86.97538 | 12466 ft | 161 kts | 124° |
| 2026-04-09 15:26 | 27.43091 | 86.98565 | 12467 ft | 146 kts | 125° |
| 2026-04-09 15:26 | 27.42609 | 86.99440 | 12464 ft | 134 kts | 123° |
| 2026-04-09 15:27 | 27.42142 | 87.00295 | 12397 ft | 120 kts | 123° |
| 2026-04-09 15:27 | 27.41732 | 87.01050 | 12364 ft | 113 kts | 123° |
| 2026-04-09 15:27 | 27.41284 | 87.01866 | 12462 ft | 137 kts | 125° |
| 2026-04-09 15:27 | 27.40727 | 87.02873 | 12462 ft | 164 kts | 124° |
| 2026-04-09 15:28 | 27.39914 | 87.03823 | 12461 ft | 176 kts | 158° |
| 2026-04-09 15:28 | 27.38700 | 87.03922 | 12464 ft | 181 kts | 200° |
| 2026-04-09 15:28 | 27.37687 | 87.03099 | 12465 ft | 185 kts | 230° |
| 2026-04-09 15:28 | 27.36747 | 87.02072 | 12453 ft | 192 kts | 221° |
| 2026-04-09 15:29 | 27.35642 | 87.01193 | 12461 ft | 197 kts | 215° |
| 2026-04-09 15:29 | 27.34477 | 87.00358 | 12460 ft | 198 kts | 214° |
| 2026-04-09 15:29 | 27.33306 | 86.99530 | 12461 ft | 200 kts | 215° |
| 2026-04-09 15:29 | 27.32141 | 86.98668 | 12437 ft | 200 kts | 216° |
| 2026-04-09 15:30 | 27.30976 | 86.97805 | 12436 ft | 201 kts | 216° |
| 2026-04-09 15:30 | 27.29816 | 86.96954 | 12432 ft | 201 kts | 216° |
| 2026-04-09 15:30 | 27.28639 | 86.96091 | 12429 ft | 203 kts | 215° |
| 2026-04-09 15:30 | 27.27453 | 86.95223 | 12428 ft | 204 kts | 215° |
| 2026-04-09 15:31 | 27.26268 | 86.94356 | 12434 ft | 204 kts | 216° |
| 2026-04-09 15:31 | 27.25075 | 86.93478 | 12436 ft | 206 kts | 216° |
| 2026-04-09 15:31 | 27.23873 | 86.92595 | 12426 ft | 205 kts | 216° |
| 2026-04-09 15:31 | 27.22682 | 86.91724 | 12431 ft | 204 kts | 216° |
| 2026-04-09 15:32 | 27.21488 | 86.90848 | 12430 ft | 205 kts | 216° |
| 2026-04-09 15:32 | 27.20294 | 86.89974 | 12433 ft | 205 kts | 216° |
| 2026-04-09 15:32 | 27.19111 | 86.89108 | 12418 ft | 206 kts | 216° |
| 2026-04-09 15:32 | 27.17898 | 86.88219 | 12417 ft | 206 kts | 216° |
| 2026-04-09 15:33 | 27.16708 | 86.87348 | 12419 ft | 207 kts | 216° |
| 2026-04-09 15:33 | 27.15500 | 86.86464 | 12419 ft | 208 kts | 216° |
| 2026-04-09 15:33 | 27.14289 | 86.85578 | 12418 ft | 208 kts | 216° |
| 2026-04-09 15:33 | 27.13080 | 86.84695 | 12417 ft | 207 kts | 217° |
| 2026-04-09 15:34 | 27.11878 | 86.83816 | 12413 ft | 206 kts | 217° |
| 2026-04-09 15:34 | 27.10683 | 86.82943 | 12413 ft | 204 kts | 217° |
| 2026-04-09 15:34 | 27.09500 | 86.82078 | 12411 ft | 203 kts | 217° |
| 2026-04-09 15:34 | 27.08323 | 86.81217 | 12409 ft | 202 kts | 217° |
| 2026-04-09 15:35 | 27.07151 | 86.80363 | 12394 ft | 200 kts | 217° |
| 2026-04-09 15:35 | 27.05984 | 86.79510 | 12396 ft | 201 kts | 217° |
| 2026-04-09 15:35 | 27.04812 | 86.78653 | 12391 ft | 202 kts | 217° |
| 2026-04-09 15:35 | 27.03633 | 86.77795 | 12391 ft | 202 kts | 217° |
| 2026-04-09 15:36 | 27.02454 | 86.76936 | 12386 ft | 202 kts | 217° |
| 2026-04-09 15:36 | 27.01286 | 86.76078 | 12416 ft | 201 kts | 219° |
| 2026-04-09 15:36 | 27.00447 | 86.74844 | 12384 ft | 198 kts | 246° |
| 2026-04-09 15:36 | 27.00005 | 86.73403 | 12385 ft | 195 kts | 260° |
| 2026-04-09 15:37 | 26.99926 | 86.71899 | 12389 ft | 193 kts | 274° |
| 2026-04-09 15:37 | 27.00212 | 86.70440 | 12401 ft | 192 kts | 289° |
| 2026-04-09 15:37 | 27.00847 | 86.69115 | 12397 ft | 194 kts | 304° |
| 2026-04-09 15:37 | 27.01781 | 86.68040 | 12393 ft | 197 kts | 319° |
| 2026-04-09 15:38 | 27.02981 | 86.67282 | 12391 ft | 200 kts | 335° |
| 2026-04-09 15:38 | 27.04347 | 86.66939 | 12399 ft | 205 kts | 351° |
| 2026-04-09 15:38 | 27.05784 | 86.67015 | 12390 ft | 208 kts | 1° |
| 2026-04-09 15:38 | 27.07219 | 86.67161 | 12389 ft | 207 kts | 0° |
| 2026-04-09 15:39 | 27.08645 | 86.67297 | 12420 ft | 204 kts | 0° |
| 2026-04-09 15:39 | 27.10068 | 86.67426 | 12405 ft | 205 kts | 0° |
| 2026-04-09 15:39 | 27.11476 | 86.67560 | 12421 ft | 202 kts | 0° |
| 2026-04-09 15:39 | 27.12873 | 86.67753 | 12420 ft | 203 kts | 5° |
| 2026-04-09 15:40 | 27.14253 | 86.68091 | 12427 ft | 204 kts | 11° |
| 2026-04-09 15:40 | 27.15628 | 86.68502 | 12428 ft | 205 kts | 12° |
| 2026-04-09 15:40 | 27.16998 | 86.68891 | 12422 ft | 205 kts | 6° |
| 2026-04-09 15:40 | 27.18429 | 86.68900 | 12419 ft | 202 kts | 354° |
| 2026-04-09 15:41 | 27.19814 | 86.68794 | 12435 ft | 201 kts | 355° |
| 2026-04-09 15:41 | 27.21212 | 86.68757 | 12436 ft | 201 kts | 356° |
| 2026-04-09 15:41 | 27.22608 | 86.68759 | 12436 ft | 199 kts | 357° |
| 2026-04-09 15:41 | 27.23998 | 86.68763 | 12441 ft | 201 kts | 357° |
| 2026-04-09 15:42 | 27.25400 | 86.68760 | 12435 ft | 202 kts | 356° |
| 2026-04-09 15:42 | 27.26804 | 86.68755 | 12438 ft | 202 kts | 357° |
| 2026-04-09 15:42 | 27.28211 | 86.68752 | 12439 ft | 202 kts | 357° |
| 2026-04-09 15:42 | 27.29609 | 86.68746 | 12439 ft | 200 kts | 356° |
| 2026-04-09 15:43 | 27.31006 | 86.68743 | 12442 ft | 201 kts | 357° |
| 2026-04-09 15:43 | 27.32408 | 86.68740 | 12469 ft | 202 kts | 357° |
| 2026-04-09 15:43 | 27.33815 | 86.68737 | 12463 ft | 202 kts | 357° |
| 2026-04-09 15:43 | 27.35221 | 86.68733 | 12463 ft | 203 kts | 357° |
| 2026-04-09 15:44 | 27.36639 | 86.68729 | 12464 ft | 204 kts | 357° |
| 2026-04-09 15:44 | 27.38059 | 86.68725 | 12461 ft | 204 kts | 357° |
| 2026-04-09 15:44 | 27.39479 | 86.68721 | 12466 ft | 204 kts | 357° |
| 2026-04-09 15:44 | 27.40897 | 86.68718 | 12467 ft | 204 kts | 357° |
| 2026-04-09 15:45 | 27.42296 | 86.68714 | 12458 ft | 203 kts | 357° |
| 2026-04-09 15:45 | 27.43697 | 86.68710 | 12482 ft | 200 kts | 359° |
| 2026-04-09 15:45 | 27.45085 | 86.68707 | 12491 ft | 200 kts | 360° |
| 2026-04-09 15:45 | 27.46483 | 86.68704 | 12489 ft | 201 kts | 359° |
| 2026-04-09 15:46 | 27.47886 | 86.68699 | 12489 ft | 202 kts | 360° |
| 2026-04-09 15:46 | 27.49290 | 86.68695 | 12489 ft | 202 kts | 360° |
| 2026-04-09 15:46 | 27.50699 | 86.68692 | 12490 ft | 202 kts | 360° |
| 2026-04-09 15:46 | 27.52101 | 86.68688 | 12487 ft | 202 kts | 360° |
| 2026-04-09 15:47 | 27.53482 | 86.68685 | 12486 ft | 197 kts | 360° |
| 2026-04-09 15:47 | 27.54850 | 86.68680 | 12488 ft | 196 kts | 360° |
| 2026-04-09 15:47 | 27.56211 | 86.68677 | 12516 ft | 195 kts | 360° |
| 2026-04-09 15:47 | 27.57569 | 86.68673 | 12493 ft | 195 kts | 360° |
| 2026-04-09 15:48 | 27.58924 | 86.68670 | 12493 ft | 194 kts | 360° |
| 2026-04-09 15:48 | 27.60280 | 86.68666 | 12492 ft | 194 kts | 360° |
| 2026-04-09 15:48 | 27.61628 | 86.68663 | 12490 ft | 194 kts | 360° |
| 2026-04-09 15:48 | 27.62957 | 86.68659 | 12490 ft | 194 kts | 360° |
| 2026-04-09 15:49 | 27.64303 | 86.68655 | 12486 ft | 193 kts | 360° |
| 2026-04-09 15:49 | 27.65620 | 86.68889 | 12486 ft | 193 kts | 20° |
| 2026-04-09 15:49 | 27.66776 | 86.69659 | 12459 ft | 195 kts | 40° |
| 2026-04-09 15:49 | 27.67618 | 86.70863 | 12464 ft | 197 kts | 59° |
| 2026-04-09 15:50 | 27.68294 | 86.72206 | 12437 ft | 197 kts | 59° |
| 2026-04-09 15:50 | 27.68972 | 86.73550 | 12408 ft | 197 kts | 63° |
| 2026-04-09 15:50 | 27.68709 | 86.74931 | 12439 ft | 200 kts | 155° |
| 2026-04-09 15:50 | 27.67315 | 86.74898 | 11886 ft | 225 kts | 215° |
| 2026-04-09 15:51 | 27.66578 | 86.73308 | 11171 ft | 240 kts | 257° |
| 2026-04-09 15:51 | 27.66161 | 86.71597 | 10750 ft | 204 kts | 247° |
| 2026-04-09 15:51 | 27.65722 | 86.70224 | 9874 ft | 178 kts | 275° |
| 2026-04-09 15:51 | 27.66577 | 86.70424 | 8572 ft | 224 kts | 59° |
| 2026-04-09 15:52 | 27.67670 | 86.71342 | 8877 ft | 154 kts | 42° |
| 2026-04-09 15:52 | 27.68180 | 86.72072 | 8966 ft | 105 kts | 54° |
| 2026-04-09 15:52 | 27.68553 | 86.72714 | 9205 ft | 90 kts | 56° |
| 2026-04-09 15:52 | 27.68692 | 86.72981 | 9335 ft | 0 kts | 63° |